DBBB

Cadjehoun Airport

Cotonou, Benin
METAR DBBB 231400Z 23009KT 190V250 9999 FEW014 32/25 Q1007 NOSIG
Observed Flight Rules
Feb-23 @ 14:00 UTC (31 minutes ago) Visual Flight Rules
Wind Visibility Clouds
230° at 9 knots 10,000+ meters
  • Few at 1,400' AGL
Temperatures Readings
Current 32°C / 90°F
Dewpoint 25°C / 77°F
Humidity 67%
Altimeter 29.73" Hg
Pressure 1007 hPa
Elevation 9
METAR DBBB 231400Z 23009KT 190V250 9999 FEW014 32/25 Q1007 NOSIG
Observed Flight Rules
Feb-23 @ 14:00 UTC
(31 minutes ago)
VFR
Wind Visibility
230° at 9 knots 10,000+ meters
Clouds
  • Few at 1,400' AGL
Temperature Dewpoint
32°C / 90°F 25°C / 77°F
Humidity Altimeter Pressure
67% 29.73" Hg 1007 hPa